Terminal Aerodrome Forecast
Issued by NWS

Home | Current Version | Previous Version | Text Only | Print | Product List | Glossary Off
Versions: 1 2 3 4 5 6 7 8 9 10 11 12 13 14 15

000
FTUS43 KMPX 101700
TAFRNH
TAF
KRNH 101737Z 1018/1118 18008KT P6SM FEW040 SCT070
     FM102200 18009KT P6SM SCT045 BKN250
     FM110700 16005KT P6SM VCSH SCT050 OVC080 PROB30 1108/1113 5SM
      TSRA OVC035CB
     FM111400 19010KT P6SM SCT050 BKN080=

USA.gov is the U.S. government's official web portal to all federal, state and local government web resources and services.